createdAt,value
2023-03-15T00:02:12.866Z,0.83
2023-03-15T00:04:42.160Z,0.81
2023-03-15T00:07:11.442Z,0.87
2023-03-15T00:09:40.982Z,0.88
2023-03-15T00:12:12.244Z,0.89
2023-03-15T00:14:41.467Z,0.96
2023-03-15T00:17:11.899Z,1.02
2023-03-15T00:19:41.137Z,1.11
2023-03-15T00:22:11.952Z,1.16
2023-03-15T00:24:41.578Z,1.21
2023-03-15T00:27:11.212Z,1.24
2023-03-15T00:29:40.469Z,1.31
2023-03-15T00:32:11.086Z,1.35
2023-03-15T00:34:41.233Z,1.45
2023-03-15T00:37:11.426Z,1.50
2023-03-15T00:39:40.971Z,1.49
2023-03-15T00:42:10.434Z,1.56
2023-03-15T00:44:39.693Z,1.55
2023-03-15T00:47:10.264Z,1.48
2023-03-15T00:49:40.520Z,1.50
2023-03-15T00:52:11.813Z,1.54
2023-03-15T00:54:41.917Z,1.53
2023-03-15T00:57:13.034Z,1.57
2023-03-15T00:59:42.279Z,1.55
2023-03-15T01:02:12.347Z,1.50
2023-03-15T01:04:41.645Z,1.50
2023-03-15T01:07:12.372Z,1.39
2023-03-15T01:09:41.995Z,1.32
2023-03-15T01:12:13.051Z,1.34
2023-03-15T01:14:42.385Z,1.32
2023-03-15T01:17:11.742Z,1.37
2023-03-15T01:19:40.970Z,1.41
2023-03-15T01:22:10.477Z,1.43
2023-03-15T01:24:39.728Z,1.44
2023-03-15T01:27:09.088Z,1.41
2023-03-15T01:29:38.643Z,1.43
2023-03-15T01:32:10.030Z,1.43
2023-03-15T01:34:39.528Z,1.40
2023-03-15T01:37:09.513Z,1.41
2023-03-15T01:39:40.616Z,1.47
2023-03-15T01:42:11.645Z,1.46
2023-03-15T01:45:01.407Z,1.43
2023-03-15T01:47:32.590Z,1.44
2023-03-15T01:50:06.261Z,1.46
2023-03-15T01:52:38.611Z,1.45
2023-03-15T01:55:14.340Z,1.48
2023-03-15T01:57:47.918Z,1.54
2023-03-15T02:00:21.582Z,1.55
2023-03-15T02:03:08.881Z,1.57
2023-03-15T02:05:46.469Z,1.52
2023-03-15T02:08:19.211Z,1.44
2023-03-15T02:10:53.564Z,1.44
2023-03-15T02:13:24.627Z,1.36
2023-03-15T02:15:55.247Z,1.33
2023-03-15T02:18:29.186Z,1.29
2023-03-15T02:21:05.613Z,1.21
2023-03-15T02:23:35.287Z,1.16
2023-03-15T02:26:25.420Z,1.22
2023-03-15T02:28:55.720Z,1.10
2023-03-15T02:31:25.467Z,1.08
2023-03-15T02:33:57.931Z,1.10
2023-03-15T02:36:27.780Z,1.14
2023-03-15T02:38:58.036Z,1.28
2023-03-15T02:41:38.748Z,1.32
2023-03-15T02:44:09.988Z,1.37
2023-03-15T02:46:40.120Z,1.35
2023-03-15T02:49:09.891Z,1.28
2023-03-15T02:51:39.185Z,1.26
2023-03-15T02:54:08.662Z,1.21
2023-03-15T02:56:37.932Z,1.20
2023-03-15T02:59:07.210Z,1.13
2023-03-15T03:01:39.576Z,1.16
2023-03-15T03:04:08.257Z,1.20
2023-03-15T03:06:37.644Z,1.25
2023-03-15T03:09:07.926Z,1.26
2023-03-15T03:11:37.713Z,1.31
2023-03-15T03:14:06.986Z,1.26
2023-03-15T03:16:36.775Z,1.27
2023-03-15T03:19:06.438Z,1.31
2023-03-15T03:21:36.501Z,1.20
2023-03-15T03:24:07.590Z,1.01
2023-03-15T03:26:37.929Z,0.93
2023-03-15T03:29:07.129Z,0.96
2023-03-15T03:31:36.452Z,0.88
2023-03-15T03:34:05.927Z,1.01
2023-03-15T03:36:36.237Z,1.01
2023-03-15T03:39:05.707Z,0.99
2023-03-15T03:41:35.376Z,0.94
2023-03-15T03:44:05.237Z,0.91
2023-03-15T03:46:36.397Z,0.84
2023-03-15T03:49:05.621Z,0.77
2023-03-15T03:51:35.275Z,0.73
2023-03-15T03:54:05.194Z,0.67
2023-03-15T03:56:35.791Z,0.84
2023-03-15T03:59:04.994Z,0.72
2023-03-15T04:01:35.982Z,0.58
2023-03-15T04:04:05.496Z,0.47
2023-03-15T04:06:35.159Z,0.42
2023-03-15T04:09:04.696Z,0.37
2023-03-15T04:11:41.962Z,0.31
2023-03-15T04:14:13.105Z,0.34
2023-03-15T04:16:43.741Z,0.43
2023-03-15T04:19:14.680Z,0.36
2023-03-15T04:21:45.618Z,0.36
2023-03-15T04:24:36.751Z,0.33
2023-03-15T04:27:07.863Z,0.22
2023-03-15T04:29:47.947Z,0.21
2023-03-15T04:32:18.895Z,0.20
2023-03-15T04:34:51.356Z,0.17
2023-03-15T04:37:22.345Z,0.05
2023-03-15T04:40:12.758Z,0.08
2023-03-15T04:42:43.827Z,-0.03
2023-03-15T04:45:31.564Z,-0.12
2023-03-15T04:48:19.067Z,0.14
2023-03-15T04:50:49.978Z,0.29
2023-03-15T04:53:21.250Z,0.34
2023-03-15T04:56:10.136Z,0.08
2023-03-15T04:58:50.097Z,-0.17
2023-03-15T05:01:30.269Z,-0.11
2023-03-15T05:04:16.542Z,-0.09
2023-03-15T05:06:53.956Z,0.13
2023-03-15T05:09:32.419Z,0.14
2023-03-15T05:12:03.523Z,0.12
2023-03-15T05:14:35.420Z,0.19
2023-03-15T05:17:07.138Z,0.52
2023-03-15T05:19:56.382Z,0.60
2023-03-15T05:22:40.950Z,0.63
2023-03-15T05:25:21.004Z,0.58
2023-03-15T05:27:56.673Z,0.60
2023-03-15T05:30:27.886Z,0.68
2023-03-15T05:33:11.169Z,0.75
2023-03-15T05:35:53.147Z,0.96
2023-03-15T05:38:39.376Z,1.00
2023-03-15T05:41:10.795Z,0.94
2023-03-15T05:43:47.488Z,0.95
2023-03-15T05:46:36.683Z,0.91
2023-03-15T05:49:10.942Z,1.03
2023-03-15T05:51:50.599Z,1.07
2023-03-15T05:54:21.758Z,1.07
2023-03-15T05:56:52.709Z,0.99
2023-03-15T05:59:42.275Z,0.91
2023-03-15T06:02:22.531Z,0.90
2023-03-15T06:04:53.799Z,0.92
2023-03-15T06:07:24.704Z,0.95
2023-03-15T06:09:54.669Z,1.00
2023-03-15T06:12:23.933Z,1.03
2023-03-15T06:14:54.153Z,1.05
2023-03-15T06:17:23.359Z,1.07
2023-03-15T06:19:52.667Z,1.05
2023-03-15T06:22:24.072Z,1.07
2023-03-15T06:24:55.331Z,1.08
2023-03-15T06:27:25.068Z,1.08
2023-03-15T06:29:56.533Z,1.05
2023-03-15T06:32:26.348Z,1.04
2023-03-15T06:34:55.777Z,0.97
2023-03-15T06:37:34.973Z,0.93
2023-03-15T06:39:57.446Z,0.89
2023-03-15T06:42:27.966Z,0.82
2023-03-15T06:44:57.544Z,0.86
2023-03-15T06:47:27.108Z,0.82
2023-03-15T06:49:57.065Z,0.80
2023-03-15T06:52:26.471Z,1.20
2023-03-15T06:54:55.800Z,2.07
2023-03-15T06:57:33.845Z,2.71
2023-03-15T07:00:07.849Z,3.49
2023-03-15T07:02:37.822Z,4.04
2023-03-15T07:05:08.336Z,3.54
2023-03-15T07:07:38.006Z,3.91
2023-03-15T07:10:09.131Z,4.54
2023-03-15T07:12:38.418Z,5.20
2023-03-15T07:15:08.719Z,5.28
2023-03-15T07:17:37.936Z,4.50
2023-03-15T07:20:08.314Z,4.19
2023-03-15T07:22:37.981Z,4.07
2023-03-15T07:25:08.060Z,3.59
2023-03-15T07:27:37.273Z,4.03
2023-03-15T07:30:08.174Z,3.90
2023-03-15T07:32:39.143Z,3.66
2023-03-15T07:35:09.848Z,3.70
2023-03-15T07:37:44.255Z,3.91
2023-03-15T07:40:12.624Z,3.99
2023-03-15T07:42:42.197Z,3.80
2023-03-15T07:45:12.637Z,3.98
2023-03-15T07:47:41.915Z,4.05
2023-03-15T07:50:14.626Z,4.18
2023-03-15T07:52:43.524Z,4.06
2023-03-15T07:55:12.981Z,4.14
2023-03-15T07:57:42.203Z,4.05
2023-03-15T08:00:13.613Z,4.01
2023-03-15T08:02:43.039Z,4.03
2023-03-15T08:05:12.316Z,4.13
2023-03-15T08:07:41.964Z,4.57
2023-03-15T08:10:11.770Z,4.95
2023-03-15T08:12:43.075Z,5.51
2023-03-15T08:15:13.391Z,5.01
2023-03-15T08:17:43.427Z,5.02
2023-03-15T08:20:14.976Z,5.92
2023-03-15T08:22:45.928Z,7.23
2023-03-15T08:25:17.169Z,7.37
2023-03-15T08:27:46.718Z,7.36
2023-03-15T08:30:16.689Z,7.05
2023-03-15T08:32:47.583Z,7.92
2023-03-15T08:35:18.931Z,9.09
2023-03-15T08:37:48.516Z,9.48
2023-03-15T08:40:20.388Z,9.82
2023-03-15T08:42:49.621Z,10.47
2023-03-15T08:45:19.173Z,10.50
2023-03-15T08:47:48.659Z,11.71
2023-03-15T08:50:19.417Z,12.61
2023-03-15T08:52:48.839Z,11.85
2023-03-15T08:55:18.504Z,11.74
2023-03-15T08:57:48.124Z,11.94
2023-03-15T09:00:19.933Z,13.10
2023-03-15T09:02:50.320Z,13.81
2023-03-15T09:05:20.069Z,13.74
2023-03-15T09:07:49.842Z,13.74
2023-03-15T09:10:19.576Z,12.66
2023-03-15T09:12:52.576Z,11.99
2023-03-15T09:15:22.017Z,13.93
2023-03-15T09:17:54.899Z,13.51
2023-03-15T09:20:25.844Z,14.93
2023-03-15T09:22:57.173Z,14.97
2023-03-15T09:25:27.030Z,13.52
2023-03-15T09:27:56.401Z,14.87
2023-03-15T09:30:25.881Z,12.72
2023-03-15T09:32:55.430Z,13.61
2023-03-15T09:35:24.658Z,13.06
2023-03-15T09:37:54.361Z,15.32
2023-03-15T09:40:27.861Z,14.36
2023-03-15T09:43:10.347Z,14.73
2023-03-15T09:45:43.557Z,15.97
2023-03-15T09:48:38.091Z,14.52
2023-03-15T09:51:26.992Z,14.92
2023-03-15T09:54:19.568Z,15.75
2023-03-15T09:56:55.943Z,16.11
2023-03-15T09:59:32.409Z,13.83
2023-03-15T10:02:04.904Z,12.69
2023-03-15T10:04:37.517Z,13.91
2023-03-15T10:07:10.245Z,14.68
2023-03-15T10:09:39.623Z,13.96
2023-03-15T10:12:14.513Z,13.11
2023-03-15T10:15:06.159Z,10.79
2023-03-15T10:17:39.123Z,9.86
2023-03-15T10:20:22.728Z,11.15
2023-03-15T10:22:57.992Z,13.00
2023-03-15T10:25:30.013Z,14.30
2023-03-15T10:28:05.838Z,13.83
2023-03-15T10:30:48.861Z,14.96
2023-03-15T10:33:34.846Z,15.76
2023-03-15T10:36:11.290Z,14.58
2023-03-15T10:38:37.534Z,13.46
2023-03-15T10:41:08.681Z,14.01
2023-03-15T10:43:39.810Z,15.88
2023-03-15T10:46:24.508Z,16.41
2023-03-15T10:49:01.620Z,14.80
2023-03-15T10:51:34.023Z,14.90
2023-03-15T10:54:17.660Z,15.59
2023-03-15T10:56:49.730Z,16.01
2023-03-15T10:59:22.033Z,17.89
2023-03-15T11:01:52.525Z,15.49
2023-03-15T11:04:24.107Z,14.78
2023-03-15T11:07:03.522Z,16.56
2023-03-15T11:09:42.340Z,14.69
2023-03-15T11:12:14.268Z,16.38
2023-03-15T11:14:46.518Z,15.04
2023-03-15T11:17:24.857Z,12.46
2023-03-15T11:20:13.181Z,11.47
2023-03-15T11:22:42.501Z,9.94
2023-03-15T11:25:18.440Z,10.58
2023-03-15T11:27:50.275Z,11.06
2023-03-15T11:30:20.978Z,11.10
2023-03-15T11:32:50.878Z,13.80
2023-03-15T11:35:34.553Z,13.08
2023-03-15T11:38:16.203Z,13.38
2023-03-15T11:40:50.104Z,15.42
2023-03-15T11:43:25.530Z,16.32
2023-03-15T11:46:00.097Z,15.24
2023-03-15T11:48:48.503Z,14.81
2023-03-15T11:51:17.821Z,14.82
2023-03-15T11:54:08.275Z,15.23
2023-03-15T11:56:55.958Z,16.28
2023-03-15T11:59:32.872Z,16.21
2023-03-15T12:02:14.215Z,15.32
2023-03-15T12:04:46.102Z,13.84
2023-03-15T12:07:23.288Z,12.34
2023-03-15T12:09:57.180Z,11.34
2023-03-15T12:12:29.597Z,12.54
2023-03-15T12:15:17.178Z,12.81
2023-03-15T12:17:51.181Z,13.93
2023-03-15T12:20:23.897Z,13.46
2023-03-15T12:22:57.910Z,14.42
2023-03-15T12:25:54.128Z,13.96
2023-03-15T12:28:15.847Z,14.36
2023-03-15T12:30:46.397Z,14.64
2023-03-15T12:33:17.781Z,13.70
2023-03-15T12:35:47.799Z,12.06
2023-03-15T12:38:22.316Z,11.94
2023-03-15T12:40:59.180Z,13.13
2023-03-15T12:43:45.199Z,13.37
2023-03-15T12:46:43.311Z,11.98
2023-03-15T12:49:27.511Z,10.22
2023-03-15T12:51:59.925Z,11.04
2023-03-15T12:54:50.718Z,11.63
2023-03-15T12:57:25.675Z,11.26
2023-03-15T13:00:05.568Z,11.83
2023-03-15T13:02:43.826Z,11.37
2023-03-15T13:05:17.639Z,12.34
2023-03-15T13:07:58.572Z,11.74
2023-03-15T13:10:53.035Z,11.97
2023-03-15T13:13:40.607Z,11.56
2023-03-15T13:16:22.553Z,11.49
2023-03-15T13:19:14.403Z,11.79
2023-03-15T13:22:20.658Z,12.67
2023-03-15T13:25:17.196Z,12.03
2023-03-15T13:28:22.522Z,12.44
2023-03-15T13:30:59.465Z,12.65
2023-03-15T13:33:32.873Z,13.02
2023-03-15T13:36:09.392Z,11.69
2023-03-15T13:38:50.287Z,11.25
2023-03-15T13:41:25.486Z,12.01
2023-03-15T13:43:59.685Z,11.96
2023-03-15T13:46:31.710Z,12.26
2023-03-15T13:49:01.958Z,12.29
2023-03-15T13:51:39.221Z,12.06
2023-03-15T13:54:27.071Z,11.79
2023-03-15T13:57:08.482Z,11.91
2023-03-15T13:59:43.180Z,12.22
2023-03-15T14:02:18.316Z,11.51
2023-03-15T14:04:51.002Z,11.45
2023-03-15T14:07:26.044Z,12.01
2023-03-15T14:10:26.687Z,11.75
2023-03-15T14:12:57.023Z,11.98
2023-03-15T14:15:32.468Z,11.80
2023-03-15T14:18:11.245Z,11.41
2023-03-15T14:20:45.361Z,11.52
2023-03-15T14:23:16.912Z,11.22
2023-03-15T14:25:54.203Z,11.70
2023-03-15T14:28:24.833Z,11.66
2023-03-15T14:30:56.248Z,11.39
2023-03-15T14:33:34.101Z,10.65
2023-03-15T14:36:08.740Z,10.96
2023-03-15T14:38:39.580Z,11.17
2023-03-15T14:41:20.694Z,10.80
2023-03-15T14:43:50.034Z,10.78
2023-03-15T14:46:19.713Z,10.70
2023-03-15T14:48:51.101Z,11.18
2023-03-15T14:51:23.171Z,11.11
2023-03-15T14:53:56.192Z,10.80
2023-03-15T14:56:26.006Z,10.99
2023-03-15T14:58:55.747Z,10.89
2023-03-15T15:01:28.748Z,10.82
2023-03-15T15:04:01.616Z,10.36
2023-03-15T15:06:32.416Z,9.64
2023-03-15T15:09:02.116Z,10.07
2023-03-15T15:11:31.613Z,10.31
2023-03-15T15:14:07.828Z,10.40
2023-03-15T15:16:44.887Z,10.59
2023-03-15T15:19:18.767Z,10.96
2023-03-15T15:21:50.880Z,10.72
2023-03-15T15:24:22.049Z,10.78
2023-03-15T15:26:51.918Z,10.44
2023-03-15T15:29:22.319Z,10.52
2023-03-15T15:31:51.787Z,10.65
2023-03-15T15:34:21.250Z,10.79
2023-03-15T15:36:52.055Z,10.36
2023-03-15T15:39:29.700Z,10.37
2023-03-15T15:41:59.022Z,10.07
2023-03-15T15:44:28.589Z,9.76
2023-03-15T15:46:57.824Z,9.69
2023-03-15T15:49:27.178Z,9.69
2023-03-15T15:51:56.694Z,9.43
2023-03-15T15:54:31.495Z,9.29
2023-03-15T15:57:02.425Z,8.98
2023-03-15T15:59:31.771Z,8.56
2023-03-15T16:02:02.404Z,8.38
2023-03-15T16:04:33.103Z,8.64
2023-03-15T16:07:08.139Z,8.81
2023-03-15T16:09:40.375Z,8.70
2023-03-15T16:12:14.111Z,8.35
2023-03-15T16:14:43.522Z,8.24
2023-03-15T16:17:24.410Z,8.22
2023-03-15T16:19:54.216Z,8.25
2023-03-15T16:22:25.040Z,8.13
2023-03-15T16:24:56.241Z,8.17
2023-03-15T16:27:27.099Z,8.06
2023-03-15T16:29:56.777Z,7.85
2023-03-15T16:32:41.373Z,7.79
2023-03-15T16:34:58.106Z,7.71
2023-03-15T16:37:30.644Z,7.54
2023-03-15T16:40:00.512Z,7.43
2023-03-15T16:42:30.127Z,7.39
2023-03-15T16:44:59.316Z,7.30
2023-03-15T16:47:28.924Z,7.24
2023-03-15T16:49:58.120Z,7.28
2023-03-15T16:52:27.366Z,7.23
2023-03-15T16:54:57.292Z,7.19
2023-03-15T16:57:27.612Z,7.10
2023-03-15T16:59:57.246Z,7.09
2023-03-15T17:02:31.347Z,7.06
2023-03-15T17:05:00.716Z,6.98
2023-03-15T17:07:34.787Z,6.91
2023-03-15T17:10:17.072Z,6.87
2023-03-15T17:12:49.573Z,6.83
2023-03-15T17:15:21.521Z,6.77
2023-03-15T17:17:51.829Z,6.74
2023-03-15T17:20:22.036Z,6.64
2023-03-15T17:22:52.502Z,6.65
2023-03-15T17:25:21.776Z,6.61
2023-03-15T17:27:52.431Z,6.52
2023-03-15T17:30:31.960Z,6.51
2023-03-15T17:33:02.205Z,6.45
2023-03-15T17:35:38.921Z,6.42
2023-03-15T17:38:11.899Z,6.34
2023-03-15T17:40:41.603Z,6.29
2023-03-15T17:43:12.821Z,6.33
2023-03-15T17:45:42.719Z,6.28
2023-03-15T17:48:12.490Z,6.19
2023-03-15T17:50:44.360Z,6.17
2023-03-15T17:53:21.487Z,6.14
2023-03-15T17:55:52.744Z,6.10
2023-03-15T17:58:24.520Z,6.13
2023-03-15T18:00:56.180Z,6.07
2023-03-15T18:03:27.041Z,6.05
2023-03-15T18:05:57.280Z,5.99
2023-03-15T18:08:27.495Z,5.97
2023-03-15T18:10:57.109Z,5.95
2023-03-15T18:13:28.352Z,5.94
2023-03-15T18:15:58.087Z,5.92
2023-03-15T18:18:27.658Z,5.91
2023-03-15T18:20:57.199Z,5.88
2023-03-15T18:23:27.216Z,5.83
2023-03-15T18:25:57.108Z,5.79
2023-03-15T18:28:26.739Z,5.77
2023-03-15T18:30:56.282Z,5.75
2023-03-15T18:33:26.586Z,5.71
2023-03-15T18:35:56.047Z,5.65
2023-03-15T18:38:25.944Z,5.65
2023-03-15T18:40:56.815Z,5.66
2023-03-15T18:43:26.617Z,5.65
2023-03-15T18:45:56.125Z,5.61
2023-03-15T18:48:39.696Z,5.56
2023-03-15T18:50:57.453Z,5.58
2023-03-15T18:53:27.434Z,5.55
2023-03-15T18:55:56.801Z,5.58
2023-03-15T18:58:26.522Z,5.58
2023-03-15T19:00:57.209Z,5.52
2023-03-15T19:03:26.811Z,5.45
2023-03-15T19:05:56.588Z,5.47
2023-03-15T19:08:26.056Z,5.47
2023-03-15T19:11:00.666Z,5.45
2023-03-15T19:13:30.241Z,5.40
2023-03-15T19:15:59.682Z,5.37
2023-03-15T19:18:31.738Z,5.31
2023-03-15T19:21:01.717Z,5.33
2023-03-15T19:23:32.431Z,5.25
2023-03-15T19:26:03.032Z,5.23
2023-03-15T19:28:33.388Z,5.21
2023-03-15T19:31:03.323Z,5.22
2023-03-15T19:33:32.897Z,5.17
2023-03-15T19:36:02.741Z,5.17
2023-03-15T19:38:33.107Z,5.14
2023-03-15T19:41:11.345Z,5.15
2023-03-15T19:43:43.700Z,5.10
2023-03-15T19:46:15.366Z,5.03
2023-03-15T19:48:45.066Z,5.01
2023-03-15T19:51:14.310Z,5.01
2023-03-15T19:53:44.087Z,4.97
2023-03-15T19:56:13.496Z,4.92
2023-03-15T19:58:43.005Z,4.95
2023-03-15T20:01:14.711Z,4.95
2023-03-15T20:03:44.057Z,4.93
2023-03-15T20:06:14.228Z,4.89
2023-03-15T20:08:44.262Z,4.88
2023-03-15T20:11:15.153Z,4.89
2023-03-15T20:13:44.822Z,4.91
2023-03-15T20:16:15.798Z,4.87
2023-03-15T20:18:45.212Z,4.94
2023-03-15T20:21:15.152Z,4.86
2023-03-15T20:23:45.533Z,4.86
2023-03-15T20:26:17.193Z,4.92
2023-03-15T20:28:47.446Z,4.85
2023-03-15T20:31:18.823Z,4.79
2023-03-15T20:33:50.855Z,4.88
2023-03-15T20:36:21.819Z,4.90
2023-03-15T20:38:51.499Z,4.88
2023-03-15T20:41:21.514Z,4.88
2023-03-15T20:43:51.055Z,4.86
2023-03-15T20:46:22.126Z,4.85
2023-03-15T20:48:53.443Z,4.78
2023-03-15T20:51:23.395Z,4.76
2023-03-15T20:53:52.849Z,4.71
2023-03-15T20:56:22.774Z,4.67
2023-03-15T20:58:53.042Z,4.65
2023-03-15T21:01:23.352Z,4.63
2023-03-15T21:04:00.271Z,4.62
2023-03-15T21:06:30.987Z,4.55
2023-03-15T21:09:02.851Z,4.46
2023-03-15T21:11:33.672Z,4.39
2023-03-15T21:14:03.448Z,4.42
2023-03-15T21:16:36.738Z,4.34
2023-03-15T21:19:06.581Z,4.31
2023-03-15T21:21:41.122Z,4.22
2023-03-15T21:24:12.566Z,4.28
2023-03-15T21:26:44.267Z,4.22
2023-03-15T21:29:15.832Z,4.07
2023-03-15T21:31:45.780Z,4.07
2023-03-15T21:34:15.775Z,4.10
2023-03-15T21:36:45.721Z,4.05
2023-03-15T21:39:16.454Z,4.00
2023-03-15T21:41:46.438Z,4.00
2023-03-15T21:44:16.562Z,3.96
2023-03-15T21:46:46.868Z,3.94
2023-03-15T21:49:16.733Z,4.01
2023-03-15T21:51:46.332Z,4.04
2023-03-15T21:54:15.934Z,3.93
2023-03-15T21:56:45.257Z,3.91
2023-03-15T21:59:15.081Z,3.88
2023-03-15T22:01:44.367Z,3.90
2023-03-15T22:04:14.026Z,3.83
2023-03-15T22:06:43.875Z,3.84
2023-03-15T22:09:13.112Z,3.79
2023-03-15T22:11:42.511Z,3.78
2023-03-15T22:14:12.524Z,3.81
2023-03-15T22:16:42.187Z,3.76
2023-03-15T22:19:11.720Z,3.71
2023-03-15T22:21:42.387Z,3.65
2023-03-15T22:24:11.941Z,3.68
2023-03-15T22:26:43.011Z,3.64
2023-03-15T22:29:12.545Z,3.60
2023-03-15T22:31:41.866Z,3.55
2023-03-15T22:34:11.115Z,3.52
2023-03-15T22:36:42.590Z,3.51
2023-03-15T22:39:12.440Z,3.49
2023-03-15T22:41:41.939Z,3.45
2023-03-15T22:44:11.779Z,3.48
2023-03-15T22:46:41.343Z,3.49
2023-03-15T22:49:11.114Z,3.45
2023-03-15T22:51:40.819Z,3.51
2023-03-15T22:54:10.855Z,3.58
2023-03-15T22:56:41.115Z,3.54
2023-03-15T22:59:10.688Z,3.57
2023-03-15T23:01:39.927Z,3.59
2023-03-15T23:04:09.737Z,3.60
2023-03-15T23:06:39.008Z,3.59
2023-03-15T23:09:08.629Z,3.61
2023-03-15T23:11:37.989Z,3.61
2023-03-15T23:14:13.858Z,3.60
2023-03-15T23:16:43.260Z,3.62
2023-03-15T23:19:13.507Z,3.65
2023-03-15T23:21:42.842Z,3.63
2023-03-15T23:24:13.917Z,3.63
2023-03-15T23:26:44.029Z,3.64
2023-03-15T23:29:13.412Z,3.66
2023-03-15T23:31:43.293Z,3.64
2023-03-15T23:34:13.071Z,3.71
2023-03-15T23:36:45.208Z,3.73
2023-03-15T23:39:13.629Z,3.80
2023-03-15T23:41:44.813Z,3.76
2023-03-15T23:44:14.194Z,3.81
2023-03-15T23:46:43.701Z,3.83
2023-03-15T23:49:13.266Z,3.85
2023-03-15T23:51:43.959Z,3.90
2023-03-15T23:54:13.174Z,3.95
2023-03-15T23:56:42.916Z,3.89
2023-03-15T23:59:12.663Z,3.88
